createdAt,value
2019-04-03T00:00:43.572Z,5.20
2019-04-03T00:01:43.564Z,3.30
2019-04-03T00:02:43.676Z,5.00
2019-04-03T00:03:43.543Z,6.10
2019-04-03T00:04:43.536Z,3.70
2019-04-03T00:05:43.517Z,13.30
2019-04-03T00:06:43.512Z,14.30
2019-04-03T00:07:43.503Z,13.20
2019-04-03T00:08:43.500Z,15.30
2019-04-03T00:09:43.493Z,8.30
2019-04-03T00:10:43.470Z,8.10
2019-04-03T00:11:43.455Z,7.00
2019-04-03T00:12:43.453Z,14.50
2019-04-03T00:13:43.449Z,16.90
2019-04-03T00:14:43.554Z,38.00
2019-04-03T00:15:44.800Z,15.30
2019-04-03T00:16:43.736Z,32.70
2019-04-03T00:17:45.272Z,54.40
2019-04-03T00:18:43.476Z,23.20
2019-04-03T00:19:43.428Z,30.60
2019-04-03T00:20:43.470Z,16.50
2019-04-03T00:21:43.393Z,17.90
2019-04-03T00:22:45.962Z,37.10
2019-04-03T00:23:43.322Z,31.00
2019-04-03T00:24:43.344Z,14.90
2019-04-03T00:25:43.318Z,13.60
2019-04-03T00:26:43.289Z,7.40
2019-04-03T00:27:43.362Z,9.20
2019-04-03T00:28:43.319Z,8.00
2019-04-03T00:29:43.255Z,6.50
2019-04-03T00:30:43.341Z,4.40
2019-04-03T00:31:43.236Z,5.00
2019-04-03T00:32:43.347Z,3.70
2019-04-03T00:33:43.316Z,4.50
2019-04-03T00:34:43.203Z,6.00
2019-04-03T00:35:43.188Z,3.40
2019-04-03T00:36:43.246Z,9.70
2019-04-03T00:37:43.171Z,8.10
2019-04-03T00:38:43.154Z,6.10
2019-04-03T00:39:43.176Z,5.50
2019-04-03T00:40:43.134Z,6.40
2019-04-03T00:41:43.123Z,4.30
2019-04-03T00:42:43.112Z,7.30
2019-04-03T00:43:43.098Z,14.00
2019-04-03T00:44:43.118Z,9.10
2019-04-03T00:45:43.076Z,7.60
2019-04-03T00:46:43.066Z,9.50
2019-04-03T00:47:43.084Z,7.20
2019-04-03T00:48:43.046Z,8.80
2019-04-03T00:49:43.034Z,10.70
2019-04-03T00:50:43.176Z,13.70
2019-04-03T00:51:43.015Z,32.80
2019-04-03T00:52:43.000Z,19.00
2019-04-03T00:53:42.992Z,30.90
2019-04-03T00:54:42.983Z,23.30
2019-04-03T00:55:42.968Z,12.00
2019-04-03T00:56:42.958Z,9.50
2019-04-03T00:57:42.949Z,14.20
2019-04-03T00:58:42.952Z,8.90
2019-04-03T00:59:42.982Z,4.80
2019-04-03T01:00:42.915Z,3.40
2019-04-03T01:01:42.903Z,6.60
2019-04-03T01:02:42.892Z,5.40
2019-04-03T01:03:42.894Z,4.50
2019-04-03T01:04:42.926Z,3.20
2019-04-03T01:05:42.872Z,3.00
2019-04-03T01:06:42.854Z,3.90
2019-04-03T01:07:43.029Z,3.80
2019-04-03T01:08:42.943Z,2.80
2019-04-03T01:09:42.813Z,4.70
2019-04-03T01:10:42.807Z,3.80
2019-04-03T01:11:42.792Z,3.70
2019-04-03T01:12:42.789Z,4.20
2019-04-03T01:13:42.767Z,4.60
2019-04-03T01:14:42.758Z,4.50
2019-04-03T01:15:42.756Z,5.30
2019-04-03T01:16:42.738Z,4.10
2019-04-03T01:17:42.729Z,4.30
2019-04-03T01:18:42.720Z,4.70
2019-04-03T01:19:42.705Z,3.70
2019-04-03T01:20:42.691Z,4.70
2019-04-03T01:21:42.764Z,4.20
2019-04-03T01:22:42.670Z,4.10
2019-04-03T01:23:42.672Z,4.40
2019-04-03T01:24:42.649Z,3.90
2019-04-03T01:25:42.634Z,3.60
2019-04-03T01:26:42.635Z,4.30
2019-04-03T01:27:42.621Z,5.30
2019-04-03T01:28:42.605Z,4.40
2019-04-03T01:29:43.083Z,6.60
2019-04-03T01:30:44.186Z,5.50
2019-04-03T01:31:42.825Z,4.40
2019-04-03T01:32:42.559Z,4.00
2019-04-03T01:33:42.548Z,3.20
2019-04-03T01:34:42.682Z,4.50
2019-04-03T01:35:42.527Z,3.60
2019-04-03T01:36:42.517Z,3.80
2019-04-03T01:37:42.502Z,15.20
2019-04-03T01:38:42.498Z,31.90
2019-04-03T01:39:42.480Z,16.50
2019-04-03T01:40:42.482Z,7.40
2019-04-03T01:41:42.459Z,5.30
2019-04-03T01:42:42.455Z,11.30
2019-04-03T01:43:42.436Z,5.90
2019-04-03T01:44:42.424Z,13.80
2019-04-03T01:45:42.564Z,9.00
2019-04-03T01:46:42.402Z,4.60
2019-04-03T01:47:42.390Z,6.30
2019-04-03T01:48:42.382Z,6.90
2019-04-03T01:49:42.369Z,5.40
2019-04-03T01:50:42.359Z,4.10
2019-04-03T01:51:42.351Z,5.90
2019-04-03T01:52:42.338Z,6.90
2019-04-03T01:53:42.378Z,4.60
2019-04-03T01:54:42.327Z,8.20
2019-04-03T01:55:42.304Z,9.30
2019-04-03T01:56:42.455Z,10.40
2019-04-03T01:57:42.285Z,13.90
2019-04-03T01:58:42.273Z,9.10
2019-04-03T01:59:42.261Z,10.70
2019-04-03T02:00:42.374Z,12.00
2019-04-03T02:01:42.243Z,13.20
2019-04-03T02:02:42.230Z,19.00
2019-04-03T02:03:42.264Z,15.90
2019-04-03T02:04:42.796Z,12.80
2019-04-03T02:05:43.836Z,9.40
2019-04-03T02:06:43.615Z,11.80
2019-04-03T02:07:44.301Z,18.40
2019-04-03T02:08:44.261Z,13.70
2019-04-03T02:09:42.323Z,14.60
2019-04-03T02:10:42.139Z,10.70
2019-04-03T02:11:42.129Z,9.70
2019-04-03T02:12:42.129Z,11.40
2019-04-03T02:13:42.105Z,6.20
2019-04-03T02:14:42.096Z,6.70
2019-04-03T02:15:42.086Z,7.30
2019-04-03T02:16:42.073Z,14.60
2019-04-03T02:17:42.196Z,26.40
2019-04-03T02:18:42.056Z,46.20
2019-04-03T02:19:42.039Z,21.70
2019-04-03T02:20:42.029Z,25.20
2019-04-03T02:21:42.018Z,9.40
2019-04-03T02:22:42.005Z,8.90
2019-04-03T02:23:42.001Z,11.00
2019-04-03T02:24:41.985Z,11.90
2019-04-03T02:25:41.986Z,12.00
2019-04-03T02:26:41.960Z,8.40
2019-04-03T02:27:41.954Z,11.00
2019-04-03T02:28:41.962Z,12.10
2019-04-03T02:29:41.939Z,11.60
2019-04-03T02:30:45.061Z,10.20
2019-04-03T02:31:41.916Z,11.20
2019-04-03T02:32:41.919Z,7.70
2019-04-03T02:33:41.911Z,9.10
2019-04-03T02:34:41.905Z,9.60
2019-04-03T02:35:41.864Z,6.60
2019-04-03T02:36:44.018Z,7.70
2019-04-03T02:37:41.842Z,8.20
2019-04-03T02:38:42.046Z,9.60
2019-04-03T02:39:41.820Z,7.70
2019-04-03T02:40:41.812Z,7.90
2019-04-03T02:41:41.844Z,9.10
2019-04-03T02:42:42.467Z,16.40
2019-04-03T02:43:45.440Z,14.10
2019-04-03T02:44:41.763Z,8.90
2019-04-03T02:45:41.754Z,9.80
2019-04-03T02:46:42.107Z,6.60
2019-04-03T02:47:41.732Z,5.70
2019-04-03T02:48:41.718Z,6.10
2019-04-03T02:49:43.147Z,6.80
2019-04-03T02:50:41.695Z,6.80
2019-04-03T02:51:41.689Z,7.40
2019-04-03T02:52:41.680Z,7.50
2019-04-03T02:53:41.715Z,7.00
2019-04-03T02:54:41.657Z,6.80
2019-04-03T02:55:41.922Z,7.70
2019-04-03T02:56:44.490Z,11.40
2019-04-03T02:57:41.620Z,20.90
2019-04-03T02:58:41.609Z,14.80
2019-04-03T02:59:41.610Z,13.00
2019-04-03T03:00:41.589Z,10.40
2019-04-03T03:01:41.573Z,10.30
2019-04-03T03:02:44.110Z,8.40
2019-04-03T03:03:41.556Z,11.00
2019-04-03T03:04:41.699Z,14.10
2019-04-03T03:05:41.537Z,10.40
2019-04-03T03:06:41.524Z,9.50
2019-04-03T03:07:41.510Z,10.30
2019-04-03T03:08:42.594Z,11.90
2019-04-03T03:09:45.937Z,16.70
2019-04-03T03:10:42.500Z,15.80
2019-04-03T03:11:41.467Z,10.80
2019-04-03T03:12:41.454Z,7.00
2019-04-03T03:13:41.440Z,8.10
2019-04-03T03:14:41.439Z,7.60
2019-04-03T03:15:44.320Z,7.60
2019-04-03T03:16:41.408Z,8.30
2019-04-03T03:17:41.394Z,7.70
2019-04-03T03:18:41.387Z,7.40
2019-04-03T03:19:41.541Z,6.70
2019-04-03T03:20:41.366Z,6.10
2019-04-03T03:21:43.883Z,9.10
2019-04-03T03:22:41.340Z,6.50
2019-04-03T03:23:41.575Z,6.50
2019-04-03T03:24:41.318Z,7.60
2019-04-03T03:25:41.321Z,7.00
2019-04-03T03:26:41.518Z,6.60
2019-04-03T03:27:42.558Z,7.90
2019-04-03T03:28:41.274Z,7.80
2019-04-03T03:29:41.549Z,7.00
2019-04-03T03:30:46.829Z,8.30
2019-04-03T03:32:04.809Z,9.00
2019-04-03T03:32:42.938Z,8.00
2019-04-03T03:33:41.754Z,6.80
2019-04-03T03:34:54.079Z,7.00
2019-04-03T03:35:46.722Z,7.50
2019-04-03T03:36:42.644Z,8.50
2019-04-03T03:37:41.174Z,7.60
2019-04-03T03:38:41.179Z,7.40
2019-04-03T03:39:43.519Z,6.70
2019-04-03T03:40:41.499Z,7.30
2019-04-03T03:41:41.131Z,5.60
2019-04-03T03:42:41.383Z,6.60
2019-04-03T03:43:41.117Z,7.30
2019-04-03T03:44:45.254Z,6.40
2019-04-03T03:45:42.083Z,7.00
2019-04-03T03:46:41.079Z,8.50
2019-04-03T03:47:41.059Z,7.40
2019-04-03T03:48:43.647Z,7.40
2019-04-03T03:49:41.121Z,8.00
2019-04-03T03:50:41.289Z,7.80
2019-04-03T03:51:41.018Z,7.90
2019-04-03T03:52:41.012Z,6.30
2019-04-03T03:53:44.073Z,7.70
2019-04-03T03:54:40.991Z,6.30
2019-04-03T03:55:40.970Z,7.60
2019-04-03T03:56:40.959Z,7.60
2019-04-03T03:57:41.059Z,8.60
2019-04-03T03:58:44.600Z,9.50
2019-04-03T03:59:40.951Z,6.50
2019-04-03T04:00:40.998Z,6.30
2019-04-03T04:01:40.904Z,8.40
2019-04-03T04:02:43.508Z,7.60
2019-04-03T04:03:41.901Z,6.80
2019-04-03T04:04:40.873Z,9.10
2019-04-03T04:05:41.066Z,8.20
2019-04-03T04:06:40.851Z,8.90
2019-04-03T04:07:41.215Z,6.60
2019-04-03T04:08:44.255Z,8.40
2019-04-03T04:09:41.050Z,12.50
2019-04-03T04:10:41.058Z,10.80
2019-04-03T04:11:41.050Z,13.00
2019-04-03T04:12:41.840Z,11.80
2019-04-03T04:13:40.776Z,9.70
2019-04-03T04:14:40.769Z,8.80
2019-04-03T04:15:40.775Z,10.40
2019-04-03T04:16:40.799Z,9.20
2019-04-03T04:17:40.878Z,10.40
2019-04-03T04:18:40.719Z,8.20
2019-04-03T04:19:40.713Z,11.60
2019-04-03T04:20:40.698Z,10.90
2019-04-03T04:21:43.252Z,11.50
2019-04-03T04:22:40.696Z,11.90
2019-04-03T04:23:40.801Z,10.20
2019-04-03T04:24:40.653Z,13.60
2019-04-03T04:25:43.458Z,10.70
2019-04-03T04:26:40.650Z,13.90
2019-04-03T04:27:40.744Z,11.30
2019-04-03T04:28:40.812Z,13.30
2019-04-03T04:29:41.829Z,14.20
2019-04-03T04:30:42.424Z,13.50
2019-04-03T04:31:43.405Z,13.60
2019-04-03T04:32:40.561Z,12.70
2019-04-03T04:33:40.772Z,11.00
2019-04-03T04:34:40.538Z,13.10
2019-04-03T04:35:40.526Z,12.20
2019-04-03T04:36:40.514Z,11.90
2019-04-03T04:37:40.836Z,10.70
2019-04-03T04:38:40.708Z,14.00
2019-04-03T04:39:40.486Z,11.90
2019-04-03T04:40:40.476Z,13.40
2019-04-03T04:41:40.469Z,13.20
2019-04-03T04:42:40.452Z,13.30
2019-04-03T04:43:40.674Z,27.30
2019-04-03T04:44:41.242Z,27.40
2019-04-03T04:45:42.206Z,18.20
2019-04-03T04:46:40.411Z,13.70
2019-04-03T04:47:40.399Z,13.60
2019-04-03T04:48:40.392Z,17.80
2019-04-03T04:49:40.375Z,20.70
2019-04-03T04:50:40.371Z,15.70
2019-04-03T04:51:40.351Z,12.50
2019-04-03T04:52:40.351Z,12.60
2019-04-03T04:53:40.378Z,13.70
2019-04-03T04:54:42.808Z,16.40
2019-04-03T04:55:40.356Z,14.20
2019-04-03T04:56:40.768Z,14.00
2019-04-03T04:57:41.344Z,12.70
2019-04-03T04:58:42.734Z,12.50
2019-04-03T04:59:40.319Z,13.10
2019-04-03T05:00:40.392Z,17.00
2019-04-03T05:01:40.237Z,20.10
2019-04-03T05:02:40.237Z,18.50
2019-04-03T05:03:40.221Z,14.00
2019-04-03T05:04:40.212Z,9.50
2019-04-03T05:05:40.370Z,10.90
2019-04-03T05:06:40.188Z,12.00
2019-04-03T05:07:40.311Z,12.80
2019-04-03T05:08:40.301Z,11.60
2019-04-03T05:09:40.177Z,12.10
2019-04-03T05:10:40.148Z,18.40
2019-04-03T05:11:40.248Z,13.80
2019-04-03T05:12:42.535Z,13.20
2019-04-03T05:13:40.135Z,16.40
2019-04-03T05:14:40.177Z,17.10
2019-04-03T05:15:40.098Z,13.60
2019-04-03T05:16:40.071Z,14.60
2019-04-03T05:17:40.063Z,11.50
2019-04-03T05:18:40.243Z,14.90
2019-04-03T05:19:40.042Z,14.20
2019-04-03T05:20:40.033Z,13.90
2019-04-03T05:21:40.022Z,13.20
2019-04-03T05:22:40.007Z,14.40
2019-04-03T05:23:39.995Z,12.90
2019-04-03T05:24:39.982Z,13.50
2019-04-03T05:25:40.005Z,13.90
2019-04-03T05:26:39.960Z,12.80
2019-04-03T05:27:39.950Z,14.90
2019-04-03T05:28:39.938Z,12.50
2019-04-03T05:29:39.924Z,11.80
2019-04-03T05:30:39.916Z,12.60
2019-04-03T05:31:39.907Z,11.00
2019-04-03T05:32:41.129Z,12.70
2019-04-03T05:33:42.230Z,12.00
2019-04-03T05:34:39.870Z,10.30
2019-04-03T05:35:39.999Z,11.30
2019-04-03T05:36:39.849Z,13.30
2019-04-03T05:37:40.317Z,12.20
2019-04-03T05:38:39.831Z,11.40
2019-04-03T05:39:40.052Z,12.40
2019-04-03T05:40:39.804Z,12.10
2019-04-03T05:41:39.978Z,10.10
2019-04-03T05:42:39.790Z,10.80
2019-04-03T05:43:39.806Z,10.90
2019-04-03T05:44:39.810Z,12.60
2019-04-03T05:45:41.802Z,11.80
2019-04-03T05:46:39.942Z,12.80
2019-04-03T05:47:39.927Z,11.00
2019-04-03T05:48:39.712Z,12.40
2019-04-03T05:49:39.740Z,12.50
2019-04-03T05:50:39.812Z,11.70
2019-04-03T05:51:39.681Z,10.50
2019-04-03T05:52:39.668Z,10.00
2019-04-03T05:53:39.657Z,13.20
2019-04-03T05:54:40.282Z,13.30
2019-04-03T05:55:40.999Z,12.10
2019-04-03T05:56:42.407Z,13.30
2019-04-03T05:57:39.617Z,12.50
2019-04-03T05:58:39.719Z,13.00
2019-04-03T05:59:39.593Z,11.40
2019-04-03T06:00:39.578Z,10.70
2019-04-03T06:01:41.545Z,12.00
2019-04-03T06:02:39.563Z,11.50
2019-04-03T06:03:44.520Z,12.30
2019-04-03T06:04:41.495Z,12.00
2019-04-03T06:05:39.528Z,14.40
2019-04-03T06:06:39.534Z,10.20
2019-04-03T06:07:39.580Z,11.30
2019-04-03T06:08:39.493Z,10.50
2019-04-03T06:09:39.485Z,11.50
2019-04-03T06:10:39.654Z,12.30
2019-04-03T06:11:40.756Z,10.60
2019-04-03T06:12:39.508Z,10.00
2019-04-03T06:13:39.873Z,10.10
2019-04-03T06:14:39.422Z,10.80
2019-04-03T06:15:39.549Z,10.40
2019-04-03T06:16:39.425Z,9.90
2019-04-03T06:17:39.390Z,10.20
2019-04-03T06:18:39.380Z,10.60
2019-04-03T06:19:39.913Z,10.00
2019-04-03T06:20:39.362Z,10.20
2019-04-03T06:21:39.349Z,11.00
2019-04-03T06:22:39.336Z,10.80
2019-04-03T06:23:39.338Z,10.70
2019-04-03T06:24:39.590Z,9.70
2019-04-03T06:25:39.318Z,10.50
2019-04-03T06:26:39.290Z,10.50
2019-04-03T06:27:42.136Z,10.10
2019-04-03T06:28:39.282Z,11.20
2019-04-03T06:29:39.302Z,10.20
2019-04-03T06:30:39.439Z,9.60
2019-04-03T06:31:39.238Z,10.50
2019-04-03T06:32:39.225Z,10.00
2019-04-03T06:33:39.214Z,9.90
2019-04-03T06:34:42.703Z,9.30
2019-04-03T06:35:39.201Z,11.50
2019-04-03T06:36:39.332Z,9.70
2019-04-03T06:37:39.166Z,10.50
2019-04-03T06:38:39.184Z,8.90
2019-04-03T06:39:39.143Z,10.40
2019-04-03T06:40:39.130Z,9.80
2019-04-03T06:41:41.630Z,9.80
2019-04-03T06:42:39.112Z,10.70
2019-04-03T06:43:39.206Z,9.50
2019-04-03T06:44:39.369Z,9.40
2019-04-03T06:45:39.270Z,11.60
2019-04-03T06:46:39.100Z,11.20
2019-04-03T06:47:39.277Z,9.30
2019-04-03T06:48:39.193Z,9.50
2019-04-03T06:49:40.336Z,9.80
2019-04-03T06:50:39.138Z,9.80
2019-04-03T06:51:39.122Z,12.10
2019-04-03T06:52:39.109Z,10.30
2019-04-03T06:53:39.187Z,9.70
2019-04-03T06:54:39.016Z,12.90
2019-04-03T06:55:39.026Z,9.30
2019-04-03T06:56:40.822Z,12.30
2019-04-03T06:57:39.875Z,9.30
2019-04-03T06:58:40.165Z,9.60
2019-04-03T06:59:39.457Z,10.30
2019-04-03T07:00:38.949Z,8.90
2019-04-03T07:01:38.924Z,9.90
2019-04-03T07:02:39.001Z,9.10
2019-04-03T07:03:39.046Z,8.60
2019-04-03T07:04:39.013Z,9.00
2019-04-03T07:07:56.987Z,9.00
2019-04-03T07:08:57.120Z,9.70
2019-04-03T07:10:29.251Z,7.60
2019-04-03T07:11:27.453Z,8.80
2019-04-03T07:12:59.120Z,8.50
2019-04-03T07:13:58.000Z,9.20
2019-04-03T07:15:28.402Z,11.90
2019-04-03T07:16:29.116Z,9.90
2019-04-03T07:17:29.831Z,9.90
2019-04-03T07:19:37.909Z,8.20
2019-04-03T07:20:37.499Z,10.50
2019-04-03T07:22:10.842Z,8.30
2019-04-03T07:23:07.694Z,8.50
2019-04-03T07:24:07.896Z,8.20
2019-04-03T07:25:07.688Z,8.80
2019-04-03T07:26:08.157Z,8.00
2019-04-03T07:27:07.652Z,10.30
2019-04-03T07:28:08.878Z,9.50
2019-04-03T07:29:07.629Z,9.70
2019-04-03T07:30:07.609Z,9.00
2019-04-03T07:31:07.617Z,10.20
2019-04-03T07:32:07.589Z,9.20
2019-04-03T07:33:07.583Z,10.00
2019-04-03T07:34:07.829Z,9.70
2019-04-03T07:35:10.165Z,10.80
2019-04-03T07:36:08.790Z,10.70
2019-04-03T07:37:07.542Z,9.30
2019-04-03T07:38:07.525Z,11.20
2019-04-03T07:39:10.407Z,9.20
2019-04-03T07:40:07.506Z,10.30
2019-04-03T07:41:07.488Z,10.60
2019-04-03T07:42:07.478Z,10.60
2019-04-03T07:43:07.468Z,9.10
2019-04-03T07:44:07.456Z,9.50
2019-04-03T07:45:07.443Z,10.90
2019-04-03T07:46:07.450Z,10.60
2019-04-03T07:47:07.588Z,9.90
2019-04-03T07:48:07.483Z,11.70
2019-04-03T07:49:08.974Z,11.10
2019-04-03T07:50:10.414Z,10.50
2019-04-03T07:51:07.389Z,10.20
2019-04-03T07:52:07.369Z,9.70
2019-04-03T07:53:07.367Z,10.10
2019-04-03T07:54:07.408Z,10.70
2019-04-03T07:55:07.333Z,10.30
2019-04-03T07:56:07.324Z,10.50
2019-04-03T07:57:09.840Z,10.00
2019-04-03T07:58:07.323Z,8.40
2019-04-03T07:59:07.303Z,9.40
2019-04-03T08:00:07.323Z,8.50
2019-04-03T08:01:09.892Z,9.10
2019-04-03T08:02:07.515Z,9.20
2019-04-03T08:03:07.246Z,8.60
2019-04-03T08:04:07.303Z,8.50
2019-04-03T08:05:07.275Z,8.20
2019-04-03T08:06:07.403Z,10.20
2019-04-03T08:07:07.274Z,7.60
2019-04-03T08:08:07.602Z,10.80
2019-04-03T08:09:09.941Z,9.20
2019-04-03T08:10:07.203Z,9.10
2019-04-03T08:11:07.197Z,10.20
2019-04-03T08:12:07.201Z,8.70
2019-04-03T08:13:07.591Z,7.90
2019-04-03T08:14:09.052Z,7.70
2019-04-03T08:15:07.115Z,8.60
2019-04-03T08:16:07.231Z,10.00
2019-04-03T08:17:07.112Z,8.60
2019-04-03T08:18:07.346Z,8.80
2019-04-03T08:19:08.594Z,8.60
2019-04-03T08:20:07.076Z,7.80
2019-04-03T08:21:07.130Z,9.10
2019-04-03T08:22:07.040Z,8.50
2019-04-03T08:23:07.304Z,8.90
2019-04-03T08:24:08.170Z,8.20
2019-04-03T08:25:07.003Z,9.80
2019-04-03T08:26:07.237Z,10.50
2019-04-03T08:27:08.166Z,9.30
2019-04-03T08:28:06.972Z,10.40
2019-04-03T08:29:06.956Z,8.20
2019-04-03T08:30:08.474Z,8.40
2019-04-03T08:31:06.933Z,9.90
2019-04-03T08:32:07.132Z,8.10
2019-04-03T08:33:16.055Z,7.60
2019-04-03T08:34:15.589Z,7.70
2019-04-03T08:35:19.834Z,9.40
2019-04-03T08:36:08.154Z,7.10
2019-04-03T08:37:09.612Z,7.70
2019-04-03T08:38:07.056Z,9.40
2019-04-03T08:39:06.856Z,9.20
2019-04-03T08:40:07.014Z,8.00
2019-04-03T08:41:06.823Z,7.90
2019-04-03T08:42:07.068Z,7.60
2019-04-03T08:43:06.824Z,7.10
2019-04-03T08:44:08.389Z,6.90
2019-04-03T08:45:07.142Z,8.60
2019-04-03T08:46:09.752Z,7.40
2019-04-03T08:47:06.759Z,8.30
2019-04-03T08:48:07.267Z,10.70
2019-04-03T08:49:06.760Z,17.10
2019-04-03T08:50:06.722Z,8.80
2019-04-03T08:51:06.715Z,9.00
2019-04-03T08:52:06.697Z,7.00
2019-04-03T08:53:08.350Z,7.40
2019-04-03T08:54:09.526Z,7.00
2019-04-03T08:55:06.676Z,7.90
2019-04-03T08:56:06.763Z,7.90
2019-04-03T08:57:06.968Z,6.40
2019-04-03T08:58:06.743Z,7.20
2019-04-03T08:59:06.687Z,8.60
2019-04-03T09:00:06.696Z,8.80
2019-04-03T09:01:06.599Z,7.30
2019-04-03T09:02:08.219Z,7.10
2019-04-03T09:03:06.580Z,6.70
2019-04-03T09:04:06.775Z,6.60
2019-04-03T09:05:07.081Z,6.90
2019-04-03T09:06:06.556Z,6.30
2019-04-03T09:07:06.558Z,7.80
2019-04-03T09:08:06.530Z,7.70
2019-04-03T09:09:06.519Z,7.20
2019-04-03T09:10:06.522Z,6.50
2019-04-03T09:11:06.501Z,6.60
2019-04-03T09:12:07.596Z,7.40
2019-04-03T09:13:17.015Z,6.40
2019-04-03T09:14:07.459Z,6.50
2019-04-03T09:15:06.444Z,7.40
2019-04-03T09:16:07.050Z,15.30
2019-04-03T09:17:06.436Z,6.60
2019-04-03T09:18:06.955Z,6.80
2019-04-03T09:19:09.567Z,9.80
2019-04-03T09:20:06.544Z,6.90
2019-04-03T09:21:06.382Z,7.20
2019-04-03T09:22:06.372Z,6.50
2019-04-03T09:23:06.519Z,6.20
2019-04-03T09:24:06.349Z,10.00
2019-04-03T09:25:06.426Z,9.40
2019-04-03T09:26:06.528Z,6.40
2019-04-03T09:27:08.209Z,8.00
2019-04-03T09:28:06.313Z,7.10
2019-04-03T09:29:06.301Z,8.00
2019-04-03T09:30:06.290Z,7.80
2019-04-03T09:31:06.278Z,8.40
2019-04-03T09:32:06.275Z,10.90
2019-04-03T09:33:06.644Z,9.50
2019-04-03T09:34:06.258Z,8.70
2019-04-03T09:35:06.231Z,6.80
2019-04-03T09:36:06.288Z,10.60
2019-04-03T09:37:07.136Z,6.70
2019-04-03T09:38:08.722Z,8.80
2019-04-03T09:39:06.183Z,11.00
2019-04-03T09:40:06.173Z,7.70
2019-04-03T09:41:06.259Z,7.80
2019-04-03T09:42:06.149Z,7.10
2019-04-03T09:43:06.152Z,10.00
2019-04-03T09:44:06.151Z,8.10
2019-04-03T09:45:06.196Z,9.10
2019-04-03T09:46:06.105Z,7.70
2019-04-03T09:47:06.362Z,21.30
2019-04-03T09:48:06.288Z,7.80
2019-04-03T09:49:07.577Z,7.20
2019-04-03T09:50:06.064Z,6.70
2019-04-03T09:51:08.890Z,11.60
2019-04-03T09:52:06.061Z,10.10
2019-04-03T09:53:06.026Z,10.60
2019-04-03T09:54:06.053Z,15.50
2019-04-03T09:55:06.292Z,8.10
2019-04-03T09:56:07.994Z,9.60
2019-04-03T09:57:06.016Z,7.40
2019-04-03T09:58:05.990Z,8.10
2019-04-03T09:59:06.777Z,9.00
2019-04-03T10:00:06.242Z,6.90
2019-04-03T10:01:06.164Z,9.00
2019-04-03T10:02:05.942Z,6.20
2019-04-03T10:03:06.083Z,7.60
2019-04-03T10:04:05.978Z,8.30
2019-04-03T10:05:05.899Z,7.90
2019-04-03T10:06:05.882Z,7.70
2019-04-03T10:07:06.126Z,8.10
2019-04-03T10:08:08.302Z,7.50
2019-04-03T10:09:05.850Z,8.00
2019-04-03T10:10:06.029Z,6.80
2019-04-03T10:11:05.830Z,8.90
2019-04-03T10:12:05.829Z,20.20
2019-04-03T10:13:05.816Z,6.60
2019-04-03T10:14:05.793Z,7.50
2019-04-03T10:15:06.002Z,6.90
2019-04-03T10:16:05.977Z,6.70
2019-04-03T10:17:06.606Z,8.70
2019-04-03T10:18:06.944Z,6.60
2019-04-03T10:19:05.893Z,8.80
2019-04-03T10:20:05.737Z,7.40
2019-04-03T10:21:05.722Z,6.50
2019-04-03T10:22:05.706Z,8.00
2019-04-03T10:23:05.696Z,6.80
2019-04-03T10:24:05.701Z,11.90
2019-04-03T10:25:06.338Z,12.70
2019-04-03T10:26:07.604Z,7.40
2019-04-03T10:27:06.000Z,6.00
2019-04-03T10:28:05.684Z,6.00
2019-04-03T10:29:06.034Z,6.10
2019-04-03T10:30:05.635Z,6.80
2019-04-03T10:31:05.873Z,5.90
2019-04-03T10:32:05.860Z,7.70
2019-04-03T10:33:05.669Z,6.50
2019-04-03T10:34:05.603Z,7.30
2019-04-03T10:35:07.323Z,5.40
2019-04-03T10:36:05.562Z,6.00
2019-04-03T10:37:05.560Z,6.00
2019-04-03T10:38:05.535Z,6.40
2019-04-03T10:39:05.820Z,6.00
2019-04-03T10:40:05.939Z,6.00
2019-04-03T10:41:05.540Z,7.80
2019-04-03T10:42:05.819Z,5.80
2019-04-03T10:43:06.334Z,7.30
2019-04-03T10:44:06.696Z,6.70
2019-04-03T10:45:05.471Z,7.40
2019-04-03T10:46:05.457Z,6.20
2019-04-03T10:47:05.695Z,7.00
2019-04-03T10:48:05.846Z,5.30
2019-04-03T10:49:05.432Z,6.50
2019-04-03T10:50:05.830Z,7.70
2019-04-03T10:51:08.636Z,8.00
2019-04-03T10:52:05.390Z,6.20
2019-04-03T10:53:05.527Z,7.70
2019-04-03T10:54:05.371Z,6.40
2019-04-03T10:55:05.355Z,6.00
2019-04-03T10:56:05.428Z,5.90
2019-04-03T10:57:05.349Z,7.40
2019-04-03T10:58:07.661Z,7.10
2019-04-03T10:59:11.826Z,6.40
2019-04-03T11:00:06.640Z,6.40
2019-04-03T11:01:05.527Z,7.90
2019-04-03T11:02:05.288Z,7.20
2019-04-03T11:03:05.300Z,5.90
2019-04-03T11:04:05.480Z,5.70
2019-04-03T11:05:05.263Z,6.10
2019-04-03T11:06:05.247Z,5.70
2019-04-03T11:07:05.229Z,5.70
2019-04-03T11:08:05.231Z,6.60
2019-04-03T11:09:05.416Z,21.60
2019-04-03T11:10:05.378Z,7.20
2019-04-03T11:11:05.193Z,5.90
2019-04-03T11:12:05.196Z,7.70
2019-04-03T11:13:05.318Z,6.90
2019-04-03T11:14:07.501Z,6.00
2019-04-03T11:15:05.140Z,6.60
2019-04-03T11:16:05.134Z,6.00
2019-04-03T11:17:05.137Z,6.50
2019-04-03T11:18:05.116Z,6.60
2019-04-03T11:19:06.953Z,5.60
2019-04-03T11:20:05.222Z,8.60
2019-04-03T11:21:05.065Z,6.10
2019-04-03T11:22:05.151Z,10.80
2019-04-03T11:23:07.613Z,8.40
2019-04-03T11:24:06.657Z,10.00
2019-04-03T11:25:05.302Z,10.60
2019-04-03T11:26:05.034Z,7.90
2019-04-03T11:27:05.042Z,7.50
2019-04-03T11:28:06.290Z,7.50
2019-04-03T11:29:05.082Z,9.20
2019-04-03T11:30:04.978Z,10.10
2019-04-03T11:31:05.066Z,6.20
2019-04-03T11:32:04.952Z,7.90
2019-04-03T11:33:04.947Z,8.20
2019-04-03T11:34:04.949Z,8.90
2019-04-03T11:35:04.925Z,7.70
2019-04-03T11:36:04.931Z,7.60
2019-04-03T11:37:04.950Z,9.40
2019-04-03T11:38:12.723Z,8.40
2019-04-03T11:39:13.135Z,7.80
2019-04-03T11:40:06.406Z,9.60
2019-04-03T11:41:12.422Z,12.40
2019-04-03T11:42:05.935Z,9.40
2019-04-03T11:43:04.884Z,12.50
2019-04-03T11:44:05.093Z,8.50
2019-04-03T11:45:05.504Z,9.40
2019-04-03T11:46:04.995Z,12.20
2019-04-03T11:47:04.790Z,11.30
2019-04-03T11:48:04.878Z,12.10
2019-04-03T11:49:04.818Z,14.90
2019-04-03T11:50:04.841Z,14.00
2019-04-03T11:51:05.366Z,17.50
2019-04-03T11:52:05.081Z,19.20
2019-04-03T11:53:07.127Z,21.70
2019-04-03T11:54:08.234Z,18.10
2019-04-03T11:55:04.709Z,20.80
2019-04-03T11:56:04.681Z,19.10
2019-04-03T11:57:04.669Z,19.30
2019-04-03T11:58:04.706Z,17.20
2019-04-03T11:59:04.648Z,18.10
2019-04-03T12:00:04.635Z,18.20
2019-04-03T12:01:04.679Z,17.90
2019-04-03T12:02:07.522Z,17.90
2019-04-03T12:03:04.642Z,17.10
2019-04-03T12:04:04.918Z,17.00
2019-04-03T12:05:04.580Z,16.80
2019-04-03T12:06:04.672Z,17.00
2019-04-03T12:07:05.045Z,15.40
2019-04-03T12:08:04.547Z,16.50
2019-04-03T12:09:04.543Z,16.20
2019-04-03T12:10:04.897Z,18.40
2019-04-03T12:11:06.114Z,19.80
2019-04-03T12:12:04.645Z,16.90
2019-04-03T12:13:04.780Z,21.20
2019-04-03T12:14:04.485Z,21.80
2019-04-03T12:15:04.477Z,20.60
2019-04-03T12:16:04.467Z,20.80
2019-04-03T12:17:04.573Z,21.90
2019-04-03T12:18:04.460Z,21.20
2019-04-03T12:19:05.772Z,20.50
2019-04-03T12:20:08.076Z,23.40
2019-04-03T12:21:04.471Z,21.40
2019-04-03T12:22:04.550Z,17.70
2019-04-03T12:23:04.469Z,18.60
2019-04-03T12:24:04.910Z,20.80
2019-04-03T12:25:05.032Z,27.20
2019-04-03T12:26:04.521Z,31.90
2019-04-03T12:27:04.335Z,31.60
2019-04-03T12:28:06.797Z,26.80
2019-04-03T12:29:06.935Z,21.40
2019-04-03T12:30:04.342Z,27.40
2019-04-03T12:31:04.321Z,26.30
2019-04-03T12:32:06.168Z,22.10
2019-04-03T12:33:04.609Z,21.50
2019-04-03T12:34:06.577Z,24.20
2019-04-03T12:35:04.375Z,21.10
2019-04-03T12:36:06.530Z,19.60
2019-04-03T12:37:04.245Z,13.90
2019-04-03T12:38:04.225Z,18.50
2019-04-03T12:39:04.198Z,20.10
2019-04-03T12:40:04.193Z,21.60
2019-04-03T12:41:04.955Z,23.70
2019-04-03T12:42:04.187Z,22.70
2019-04-03T12:43:04.334Z,17.80
2019-04-03T12:44:04.167Z,18.50
2019-04-03T12:45:04.236Z,17.60
2019-04-03T12:46:04.122Z,16.40
2019-04-03T12:47:06.930Z,15.70
2019-04-03T12:48:05.173Z,14.70
2019-04-03T12:49:06.572Z,16.00
2019-04-03T12:50:04.236Z,16.60
2019-04-03T12:51:04.287Z,15.30
2019-04-03T12:52:04.753Z,16.80
2019-04-03T12:53:04.047Z,15.60
2019-04-03T12:54:04.093Z,16.70
2019-04-03T12:55:04.090Z,16.50
2019-04-03T12:56:04.338Z,19.10
2019-04-03T12:57:04.010Z,15.60
2019-04-03T12:58:05.100Z,24.30
2019-04-03T12:59:03.979Z,16.70
2019-04-03T13:00:04.238Z,16.50
2019-04-03T13:01:03.960Z,21.40
2019-04-03T13:02:03.944Z,20.20
2019-04-03T13:03:03.933Z,19.70
2019-04-03T13:04:03.926Z,23.60
2019-04-03T13:05:06.323Z,21.20
2019-04-03T13:06:03.899Z,16.10
2019-04-03T13:07:05.357Z,17.60
2019-04-03T13:08:04.137Z,14.80
2019-04-03T13:09:03.971Z,17.30
2019-04-03T13:10:06.147Z,17.60
2019-04-03T13:11:03.945Z,16.10
2019-04-03T13:12:04.020Z,16.20